sensor_id;sensor_type;location;lat;lon;timestamp;pressure;altitude;pressure_sealevel;temperature;humidity
52983;BME280;48698;45.736;13.926;2023-03-04T00:02:35;97462.31;;;4.47;100.00
52983;BME280;48698;45.736;13.926;2023-03-04T00:07:39;97632.75;;;5.51;100.00
52983;BME280;48698;45.736;13.926;2023-03-04T00:12:42;97579.78;;;5.05;100.00
52983;BME280;48698;45.736;13.926;2023-03-04T00:17:46;97551.16;;;4.65;100.00
52983;BME280;48698;45.736;13.926;2023-03-04T00:22:59;97640.56;;;5.27;100.00
52983;BME280;48698;45.736;13.926;2023-03-04T00:28:03;97534.25;;;5.03;100.00
52983;BME280;48698;45.736;13.926;2023-03-04T00:33:07;97744.19;;;6.12;100.00
52983;BME280;48698;45.736;13.926;2023-03-04T00:38:10;97632.19;;;5.69;100.00
52983;BME280;48698;45.736;13.926;2023-03-04T00:43:14;97480.50;;;4.82;100.00
52983;BME280;48698;45.736;13.926;2023-03-04T00:48:17;97594.50;;;5.12;100.00
52983;BME280;48698;45.736;13.926;2023-03-04T00:53:21;97638.72;;;5.30;100.00
52983;BME280;48698;45.736;13.926;2023-03-04T00:58:26;97704.16;;;5.71;100.00
52983;BME280;48698;45.736;13.926;2023-03-04T01:03:29;97634.72;;;5.45;100.00
52983;BME280;48698;45.736;13.926;2023-03-04T01:08:35;97647.88;;;5.17;100.00
52983;BME280;48698;45.736;13.926;2023-03-04T01:13:38;97700.16;;;5.88;100.00
52983;BME280;48698;45.736;13.926;2023-03-04T01:18:42;97560.88;;;4.92;100.00
52983;BME280;48698;45.736;13.926;2023-03-04T01:23:46;97472.09;;;4.11;100.00
52983;BME280;48698;45.736;13.926;2023-03-04T01:28:49;97596.84;;;3.98;100.00
52983;BME280;48698;45.736;13.926;2023-03-04T01:33:53;97644.94;;;4.35;100.00
52983;BME280;48698;45.736;13.926;2023-03-04T01:39:06;97597.06;;;3.55;100.00
52983;BME280;48698;45.736;13.926;2023-03-04T01:44:10;97628.06;;;3.76;100.00
52983;BME280;48698;45.736;13.926;2023-03-04T01:49:14;97655.06;;;3.81;100.00
52983;BME280;48698;45.736;13.926;2023-03-04T01:54:21;97652.47;;;4.15;100.00
52983;BME280;48698;45.736;13.926;2023-03-04T01:59:27;97692.88;;;4.11;100.00
52983;BME280;48698;45.736;13.926;2023-03-04T02:04:33;97471.16;;;2.81;100.00
52983;BME280;48698;45.736;13.926;2023-03-04T02:09:37;97670.66;;;3.89;100.00
52983;BME280;48698;45.736;13.926;2023-03-04T02:14:41;97675.66;;;3.62;100.00
52983;BME280;48698;45.736;13.926;2023-03-04T02:20:12;97677.88;;;3.42;100.00
52983;BME280;48698;45.736;13.926;2023-03-04T02:25:23;97675.59;;;3.27;100.00
52983;BME280;48698;45.736;13.926;2023-03-04T02:30:29;97418.03;;;1.95;100.00
52983;BME280;48698;45.736;13.926;2023-03-04T02:35:32;97702.66;;;3.31;100.00
52983;BME280;48698;45.736;13.926;2023-03-04T02:40:36;97465.22;;;1.92;100.00
52983;BME280;48698;45.736;13.926;2023-03-04T02:45:47;97680.63;;;3.38;100.00
52983;BME280;48698;45.736;13.926;2023-03-04T02:50:52;97675.47;;;3.33;100.00
52983;BME280;48698;45.736;13.926;2023-03-04T02:55:56;97678.44;;;3.18;100.00
52983;BME280;48698;45.736;13.926;2023-03-04T03:01:00;97667.16;;;3.13;100.00
52983;BME280;48698;45.736;13.926;2023-03-04T03:06:04;97356.03;;;1.55;100.00
52983;BME280;48698;45.736;13.926;2023-03-04T03:11:08;97464.84;;;2.10;100.00
52983;BME280;48698;45.736;13.926;2023-03-04T03:16:11;97662.91;;;3.07;100.00
52983;BME280;48698;45.736;13.926;2023-03-04T03:21:15;97532.00;;;2.57;100.00
52983;BME280;48698;45.736;13.926;2023-03-04T03:26:20;97647.72;;;3.60;100.00
52983;BME280;48698;45.736;13.926;2023-03-04T03:31:24;97644.41;;;3.52;100.00
52983;BME280;48698;45.736;13.926;2023-03-04T03:36:27;97567.03;;;2.93;100.00
52983;BME280;48698;45.736;13.926;2023-03-04T03:41:31;97531.97;;;2.58;100.00
52983;BME280;48698;45.736;13.926;2023-03-04T03:46:34;97646.44;;;3.41;100.00
52983;BME280;48698;45.736;13.926;2023-03-04T03:51:38;97646.22;;;3.10;100.00
52983;BME280;48698;45.736;13.926;2023-03-04T03:56:41;97596.28;;;2.75;100.00
52983;BME280;48698;45.736;13.926;2023-03-04T04:01:44;97590.66;;;3.31;100.00
52983;BME280;48698;45.736;13.926;2023-03-04T04:06:48;97640.47;;;3.70;100.00
52983;BME280;48698;45.736;13.926;2023-03-04T04:11:52;97350.03;;;2.99;100.00
52983;BME280;48698;45.736;13.926;2023-03-04T04:16:55;97512.00;;;4.25;100.00
52983;BME280;48698;45.736;13.926;2023-03-04T04:21:58;97539.50;;;4.13;100.00
52983;BME280;48698;45.736;13.926;2023-03-04T04:27:03;97335.09;;;3.34;100.00
52983;BME280;48698;45.736;13.926;2023-03-04T04:32:07;97475.47;;;4.16;100.00
52983;BME280;48698;45.736;13.926;2023-03-04T04:37:11;97521.06;;;4.15;100.00
52983;BME280;48698;45.736;13.926;2023-03-04T04:42:14;97519.34;;;4.14;100.00
52983;BME280;48698;45.736;13.926;2023-03-04T04:47:18;97614.22;;;4.68;100.00
52983;BME280;48698;45.736;13.926;2023-03-04T04:52:22;97572.16;;;4.37;100.00
52983;BME280;48698;45.736;13.926;2023-03-04T04:57:25;97557.22;;;4.07;100.00
52983;BME280;48698;45.736;13.926;2023-03-04T05:02:39;97422.41;;;3.08;100.00
52983;BME280;48698;45.736;13.926;2023-03-04T05:07:42;97471.19;;;3.49;100.00
52983;BME280;48698;45.736;13.926;2023-03-04T05:12:46;97544.94;;;2.65;100.00
52983;BME280;48698;45.736;13.926;2023-03-04T05:17:49;97661.97;;;3.10;100.00
52983;BME280;48698;45.736;13.926;2023-03-04T05:22:53;97591.94;;;2.31;100.00
52983;BME280;48698;45.736;13.926;2023-03-04T05:27:56;97606.88;;;2.26;100.00
52983;BME280;48698;45.736;13.926;2023-03-04T05:32:59;97600.13;;;2.14;100.00
52983;BME280;48698;45.736;13.926;2023-03-04T05:38:04;97660.00;;;2.35;100.00
52983;BME280;48698;45.736;13.926;2023-03-04T05:43:17;97611.34;;;2.21;100.00
52983;BME280;48698;45.736;13.926;2023-03-04T05:48:21;97588.44;;;2.30;100.00
52983;BME280;48698;45.736;13.926;2023-03-04T05:53:25;97319.41;;;1.10;100.00
52983;BME280;48698;45.736;13.926;2023-03-04T05:58:29;97503.28;;;2.51;100.00
52983;BME280;48698;45.736;13.926;2023-03-04T06:03:33;97648.91;;;3.84;100.00
52983;BME280;48698;45.736;13.926;2023-03-04T06:08:36;97506.34;;;3.08;100.00
52983;BME280;48698;45.736;13.926;2023-03-04T06:13:40;97653.84;;;3.96;100.00
52983;BME280;48698;45.736;13.926;2023-03-04T06:18:44;97558.63;;;3.52;100.00
52983;BME280;48698;45.736;13.926;2023-03-04T06:23:47;97530.19;;;3.70;100.00
52983;BME280;48698;45.736;13.926;2023-03-04T06:28:51;97601.25;;;3.97;100.00
52983;BME280;48698;45.736;13.926;2023-03-04T06:34:01;97542.06;;;3.50;100.00
52983;BME280;48698;45.736;13.926;2023-03-04T06:39:06;97598.03;;;3.86;100.00
52983;BME280;48698;45.736;13.926;2023-03-04T06:44:19;97643.78;;;4.13;100.00
52983;BME280;48698;45.736;13.926;2023-03-04T06:49:27;97659.06;;;4.31;100.00
52983;BME280;48698;45.736;13.926;2023-03-04T06:54:31;97438.06;;;3.11;100.00
52983;BME280;48698;45.736;13.926;2023-03-04T06:59:34;97600.00;;;4.12;100.00
52983;BME280;48698;45.736;13.926;2023-03-04T07:04:38;97431.19;;;3.39;100.00
52983;BME280;48698;45.736;13.926;2023-03-04T07:09:42;97579.94;;;4.40;100.00
52983;BME280;48698;45.736;13.926;2023-03-04T07:14:46;97348.03;;;3.41;100.00
52983;BME280;48698;45.736;13.926;2023-03-04T07:19:49;97472.25;;;4.37;100.00
52983;BME280;48698;45.736;13.926;2023-03-04T07:24:53;97364.91;;;3.93;100.00
52983;BME280;48698;45.736;13.926;2023-03-04T07:29:57;97560.47;;;5.06;100.00
52983;BME280;48698;45.736;13.926;2023-03-04T07:35:01;97599.03;;;5.36;100.00
52983;BME280;48698;45.736;13.926;2023-03-04T07:40:06;97506.09;;;5.05;100.00
52983;BME280;48698;45.736;13.926;2023-03-04T07:45:11;97536.22;;;5.50;100.00
52983;BME280;48698;45.736;13.926;2023-03-04T07:50:15;97501.84;;;5.27;100.00
52983;BME280;48698;45.736;13.926;2023-03-04T07:55:19;97460.22;;;5.13;100.00
52983;BME280;48698;45.736;13.926;2023-03-04T08:00:22;97648.81;;;6.50;100.00
52983;BME280;48698;45.736;13.926;2023-03-04T08:05:27;97591.28;;;6.12;100.00
52983;BME280;48698;45.736;13.926;2023-03-04T08:10:32;97658.75;;;6.68;100.00
52983;BME280;48698;45.736;13.926;2023-03-04T08:15:41;97569.81;;;6.22;100.00
52983;BME280;48698;45.736;13.926;2023-03-04T08:20:45;97491.22;;;6.07;100.00
52983;BME280;48698;45.736;13.926;2023-03-04T08:25:48;97634.31;;;7.10;100.00
52983;BME280;48698;45.736;13.926;2023-03-04T08:30:53;97642.94;;;7.15;100.00
52983;BME280;48698;45.736;13.926;2023-03-04T08:35:57;97389.34;;;5.82;100.00
52983;BME280;48698;45.736;13.926;2023-03-04T08:41:01;97552.78;;;7.02;100.00
52983;BME280;48698;45.736;13.926;2023-03-04T08:46:06;97627.72;;;7.66;100.00
52983;BME280;48698;45.736;13.926;2023-03-04T08:51:12;97623.91;;;8.15;100.00
52983;BME280;48698;45.736;13.926;2023-03-04T08:56:16;97581.84;;;8.31;100.00
52983;BME280;48698;45.736;13.926;2023-03-04T09:01:21;97541.63;;;8.43;100.00
52983;BME280;48698;45.736;13.926;2023-03-04T09:06:25;97493.34;;;8.38;100.00
52983;BME280;48698;45.736;13.926;2023-03-04T09:11:30;97620.69;;;9.28;100.00
52983;BME280;48698;45.736;13.926;2023-03-04T09:16:34;97352.69;;;7.69;100.00
52983;BME280;48698;45.736;13.926;2023-03-04T09:21:37;97432.97;;;8.46;100.00
52983;BME280;48698;45.736;13.926;2023-03-04T09:26:41;97457.41;;;8.71;100.00
52983;BME280;48698;45.736;13.926;2023-03-04T09:31:44;97367.66;;;8.65;100.00
52983;BME280;48698;45.736;13.926;2023-03-04T09:36:48;97581.81;;;10.36;100.00
52983;BME280;48698;45.736;13.926;2023-03-04T09:41:54;97605.78;;;11.66;99.90
52983;BME280;48698;45.736;13.926;2023-03-04T09:47:15;97377.22;;;10.24;95.07
52983;BME280;48698;45.736;13.926;2023-03-04T09:57:59;97606.34;;;11.24;92.13
52983;BME280;48698;45.736;13.926;2023-03-04T10:13:32;97509.25;;;11.02;88.80
52983;BME280;48698;45.736;13.926;2023-03-04T10:18:44;97596.34;;;11.45;88.46
52983;BME280;48698;45.736;13.926;2023-03-04T10:23:49;97405.72;;;11.16;87.86
52983;BME280;48698;45.736;13.926;2023-03-04T10:28:58;97482.88;;;11.30;84.77
52983;BME280;48698;45.736;13.926;2023-03-04T10:34:05;97443.47;;;11.52;84.21
52983;BME280;48698;45.736;13.926;2023-03-04T10:39:21;97526.66;;;12.73;86.37
52983;BME280;48698;45.736;13.926;2023-03-04T10:44:28;97554.00;;;13.33;83.58
52983;BME280;48698;45.736;13.926;2023-03-04T10:49:32;97489.25;;;11.57;85.10
52983;BME280;48698;45.736;13.926;2023-03-04T10:54:53;97559.31;;;12.03;85.30
52983;BME280;48698;45.736;13.926;2023-03-04T10:59:58;97551.69;;;12.13;85.48
52983;BME280;48698;45.736;13.926;2023-03-04T11:10:19;97475.00;;;12.04;84.36
52983;BME280;48698;45.736;13.926;2023-03-04T11:15:25;97529.25;;;12.61;83.05
52983;BME280;48698;45.736;13.926;2023-03-04T11:20:34;97313.97;;;11.09;84.24
52983;BME280;48698;45.736;13.926;2023-03-04T11:25:47;97523.81;;;12.90;80.02
52983;BME280;48698;45.736;13.926;2023-03-04T11:30:56;97488.91;;;12.95;78.98
52983;BME280;48698;45.736;13.926;2023-03-04T11:36:20;97502.31;;;12.65;79.41
52983;BME280;48698;45.736;13.926;2023-03-04T11:41:30;97491.25;;;13.00;76.19
52983;BME280;48698;45.736;13.926;2023-03-04T11:52:18;97476.22;;;13.27;71.46
52983;BME280;48698;45.736;13.926;2023-03-04T12:03:20;97458.13;;;13.18;70.21
52983;BME280;48698;45.736;13.926;2023-03-04T12:35:12;97414.19;;;13.77;67.30
52983;BME280;48698;45.736;13.926;2023-03-04T12:40:34;97399.78;;;13.79;69.11
52983;BME280;48698;45.736;13.926;2023-03-04T12:46:06;97379.88;;;13.58;69.56
52983;BME280;48698;45.736;13.926;2023-03-04T12:51:33;97389.06;;;13.67;69.79
52983;BME280;48698;45.736;13.926;2023-03-04T12:56:50;97316.75;;;13.05;71.17
52983;BME280;48698;45.736;13.926;2023-03-04T13:07:13;97152.56;;;12.10;70.36
52983;BME280;48698;45.736;13.926;2023-03-04T13:12:24;97270.69;;;12.76;69.08
52983;BME280;48698;45.736;13.926;2023-03-04T13:17:39;97361.22;;;13.58;68.36
52983;BME280;48698;45.736;13.926;2023-03-04T13:22:56;97342.97;;;13.77;71.36
52983;BME280;48698;45.736;13.926;2023-03-04T13:43:36;97339.00;;;13.58;68.02
52983;BME280;48698;45.736;13.926;2023-03-04T13:48:41;97037.81;;;11.75;67.00
52983;BME280;48698;45.736;13.926;2023-03-04T14:09:37;97145.84;;;12.31;66.53
52983;BME280;48698;45.736;13.926;2023-03-04T14:14:46;97185.75;;;12.45;66.30
52983;BME280;48698;45.736;13.926;2023-03-04T14:19:54;97245.88;;;12.76;65.36
52983;BME280;48698;45.736;13.926;2023-03-04T14:25:05;97308.97;;;13.29;65.22
52983;BME280;48698;45.736;13.926;2023-03-04T14:35:37;97277.91;;;13.28;62.04
52983;BME280;48698;45.736;13.926;2023-03-04T14:40:44;97180.63;;;12.69;63.92
52983;BME280;48698;45.736;13.926;2023-03-04T14:45:54;97235.94;;;13.05;63.15
52983;BME280;48698;45.736;13.926;2023-03-04T14:51:05;97203.69;;;12.82;62.20
52983;BME280;48698;45.736;13.926;2023-03-04T14:56:26;97288.66;;;13.14;63.18
52983;BME280;48698;45.736;13.926;2023-03-04T15:01:34;97297.94;;;13.21;61.64
52983;BME280;48698;45.736;13.926;2023-03-04T15:06:48;97286.47;;;12.79;60.35
52983;BME280;48698;45.736;13.926;2023-03-04T15:12:00;97275.31;;;13.14;58.04
52983;BME280;48698;45.736;13.926;2023-03-04T15:17:30;97286.78;;;13.28;58.95
52983;BME280;48698;45.736;13.926;2023-03-04T15:27:44;97247.47;;;12.78;57.52
52983;BME280;48698;45.736;13.926;2023-03-04T15:32:49;97224.59;;;12.88;56.50
52983;BME280;48698;45.736;13.926;2023-03-04T15:37:54;97270.66;;;13.30;56.39
52983;BME280;48698;45.736;13.926;2023-03-04T15:43:01;97257.03;;;13.08;56.69
52983;BME280;48698;45.736;13.926;2023-03-04T15:48:09;97257.25;;;13.31;56.89
52983;BME280;48698;45.736;13.926;2023-03-04T15:53:24;97229.81;;;12.63;55.21
52983;BME280;48698;45.736;13.926;2023-03-04T15:58:29;97180.44;;;12.04;55.66
52983;BME280;48698;45.736;13.926;2023-03-04T16:03:45;97246.78;;;12.21;56.06
52983;BME280;48698;45.736;13.926;2023-03-04T16:08:49;97252.56;;;12.28;56.24
52983;BME280;48698;45.736;13.926;2023-03-04T16:13:55;97249.94;;;12.55;55.27
52983;BME280;48698;45.736;13.926;2023-03-04T16:18:58;97201.13;;;11.72;54.99
52983;BME280;48698;45.736;13.926;2023-03-04T16:24:02;97169.75;;;11.49;54.93
52983;BME280;48698;45.736;13.926;2023-03-04T16:29:05;97103.09;;;11.52;53.96
52983;BME280;48698;45.736;13.926;2023-03-04T16:34:10;97029.44;;;11.12;53.35
52983;BME280;48698;45.736;13.926;2023-03-04T16:39:21;97243.47;;;12.04;52.39
52983;BME280;48698;45.736;13.926;2023-03-04T16:44:26;97097.53;;;10.26;56.32
52983;BME280;48698;45.736;13.926;2023-03-04T16:49:29;97237.72;;;9.87;56.24
52983;BME280;48698;45.736;13.926;2023-03-04T16:54:34;97232.88;;;9.29;60.44
52983;BME280;48698;45.736;13.926;2023-03-04T16:59:38;97269.84;;;9.65;57.19
52983;BME280;48698;45.736;13.926;2023-03-04T17:04:45;97265.84;;;8.90;62.27
52983;BME280;48698;45.736;13.926;2023-03-04T17:09:48;97142.00;;;7.54;66.43
52983;BME280;48698;45.736;13.926;2023-03-04T17:14:52;96957.47;;;5.76;69.67
52983;BME280;48698;45.736;13.926;2023-03-04T17:19:56;97203.31;;;6.83;68.28
52983;BME280;48698;45.736;13.926;2023-03-04T17:25:04;97058.75;;;5.68;68.67
52983;BME280;48698;45.736;13.926;2023-03-04T17:30:11;97276.06;;;6.48;69.72
52983;BME280;48698;45.736;13.926;2023-03-04T17:35:14;96951.38;;;4.23;72.18
52983;BME280;48698;45.736;13.926;2023-03-04T17:40:23;97271.34;;;7.76;64.41
52983;BME280;48698;45.736;13.926;2023-03-04T17:45:26;97262.41;;;8.16;63.37
52983;BME280;48698;45.736;13.926;2023-03-04T17:50:30;97277.16;;;8.21;63.23
52983;BME280;48698;45.736;13.926;2023-03-04T17:55:33;97204.34;;;7.58;63.53
52983;BME280;48698;45.736;13.926;2023-03-04T18:00:36;97133.03;;;7.01;65.73
52983;BME280;48698;45.736;13.926;2023-03-04T18:05:40;96972.25;;;5.80;66.66
52983;BME280;48698;45.736;13.926;2023-03-04T18:10:43;97036.50;;;6.17;68.32
52983;BME280;48698;45.736;13.926;2023-03-04T18:15:47;97190.38;;;7.36;69.08
52983;BME280;48698;45.736;13.926;2023-03-04T18:20:58;97218.22;;;7.24;69.16
52983;BME280;48698;45.736;13.926;2023-03-04T18:26:02;97204.41;;;6.99;68.56
52983;BME280;48698;45.736;13.926;2023-03-04T18:31:06;97194.59;;;6.41;69.72
52983;BME280;48698;45.736;13.926;2023-03-04T18:36:10;97320.91;;;6.03;71.46
52983;BME280;48698;45.736;13.926;2023-03-04T18:41:14;97006.09;;;4.35;72.44
52983;BME280;48698;45.736;13.926;2023-03-04T18:46:27;97276.75;;;4.64;78.09
52983;BME280;48698;45.736;13.926;2023-03-04T18:51:31;97108.16;;;3.18;83.14
52983;BME280;48698;45.736;13.926;2023-03-04T18:57:04;97328.72;;;4.02;100.00
52983;BME280;48698;45.736;13.926;2023-03-04T19:02:53;97327.91;;;4.56;100.00
52983;BME280;48698;45.736;13.926;2023-03-04T19:07:58;97322.41;;;4.90;100.00
52983;BME280;48698;45.736;13.926;2023-03-04T19:13:05;97311.88;;;4.90;100.00
52983;BME280;48698;45.736;13.926;2023-03-04T19:18:09;97276.28;;;3.98;100.00
52983;BME280;48698;45.736;13.926;2023-03-04T19:23:13;97245.75;;;3.68;100.00
52983;BME280;48698;45.736;13.926;2023-03-04T19:28:16;97221.97;;;3.43;100.00
52983;BME280;48698;45.736;13.926;2023-03-04T19:33:20;97239.19;;;3.22;100.00
52983;BME280;48698;45.736;13.926;2023-03-04T19:38:23;97281.66;;;3.67;100.00
52983;BME280;48698;45.736;13.926;2023-03-04T19:43:26;97324.44;;;4.00;100.00
52983;BME280;48698;45.736;13.926;2023-03-04T19:48:30;97224.09;;;3.30;100.00
52983;BME280;48698;45.736;13.926;2023-03-04T19:53:33;97326.94;;;3.44;100.00
52983;BME280;48698;45.736;13.926;2023-03-04T19:58:37;97046.00;;;0.96;100.00
52983;BME280;48698;45.736;13.926;2023-03-04T20:03:40;97243.03;;;2.12;100.00
52983;BME280;48698;45.736;13.926;2023-03-04T20:08:43;97285.28;;;1.97;100.00
52983;BME280;48698;45.736;13.926;2023-03-04T20:13:47;97327.69;;;2.49;100.00
52983;BME280;48698;45.736;13.926;2023-03-04T20:18:51;97256.22;;;2.07;100.00
52983;BME280;48698;45.736;13.926;2023-03-04T20:23:54;97265.63;;;2.16;100.00
52983;BME280;48698;45.736;13.926;2023-03-04T20:28:58;97264.31;;;1.98;100.00
52983;BME280;48698;45.736;13.926;2023-03-04T20:34:02;97314.81;;;2.40;100.00
52983;BME280;48698;45.736;13.926;2023-03-04T20:39:06;97350.38;;;2.50;100.00
52983;BME280;48698;45.736;13.926;2023-03-04T20:44:28;97202.81;;;1.39;100.00
52983;BME280;48698;45.736;13.926;2023-03-04T20:49:32;97240.78;;;1.19;100.00
52983;BME280;48698;45.736;13.926;2023-03-04T20:54:37;97373.88;;;1.77;100.00
52983;BME280;48698;45.736;13.926;2023-03-04T20:59:40;97302.34;;;0.92;100.00
52983;BME280;48698;45.736;13.926;2023-03-04T21:04:44;97268.91;;;0.62;100.00
52983;BME280;48698;45.736;13.926;2023-03-04T21:09:48;97359.59;;;1.50;100.00
52983;BME280;48698;45.736;13.926;2023-03-04T21:14:51;97342.00;;;1.14;100.00
52983;BME280;48698;45.736;13.926;2023-03-04T21:19:55;97336.56;;;1.67;100.00
52983;BME280;48698;45.736;13.926;2023-03-04T21:25:08;97360.66;;;1.83;100.00
52983;BME280;48698;45.736;13.926;2023-03-04T21:30:12;97221.56;;;0.77;100.00
52983;BME280;48698;45.736;13.926;2023-03-04T21:35:16;97378.72;;;1.08;100.00
52983;BME280;48698;45.736;13.926;2023-03-04T21:40:31;97241.59;;;0.78;100.00
52983;BME280;48698;45.736;13.926;2023-03-04T21:45:35;97263.38;;;0.77;100.00
52983;BME280;48698;45.736;13.926;2023-03-04T21:50:40;97363.75;;;1.60;100.00
52983;BME280;48698;45.736;13.926;2023-03-04T21:55:44;97271.66;;;1.00;100.00
52983;BME280;48698;45.736;13.926;2023-03-04T22:00:47;97264.22;;;1.23;100.00
52983;BME280;48698;45.736;13.926;2023-03-04T22:05:57;97071.59;;;-0.02;100.00
52983;BME280;48698;45.736;13.926;2023-03-04T22:11:03;97246.50;;;0.93;100.00
52983;BME280;48698;45.736;13.926;2023-03-04T22:16:08;97315.34;;;1.81;100.00
52983;BME280;48698;45.736;13.926;2023-03-04T22:21:14;97346.75;;;2.19;100.00
52983;BME280;48698;45.736;13.926;2023-03-04T22:26:21;97146.44;;;0.86;100.00
52983;BME280;48698;45.736;13.926;2023-03-04T22:31:34;97335.09;;;1.95;100.00
52983;BME280;48698;45.736;13.926;2023-03-04T22:36:40;97214.78;;;1.13;100.00
52983;BME280;48698;45.736;13.926;2023-03-04T22:41:44;97233.69;;;0.81;100.00
52983;BME280;48698;45.736;13.926;2023-03-04T22:46:47;97300.91;;;0.76;100.00
52983;BME280;48698;45.736;13.926;2023-03-04T22:51:51;97263.84;;;0.98;100.00
52983;BME280;48698;45.736;13.926;2023-03-04T22:56:54;97141.50;;;0.30;100.00
52983;BME280;48698;45.736;13.926;2023-03-04T23:01:58;97053.44;;;-0.08;100.00
52983;BME280;48698;45.736;13.926;2023-03-04T23:07:02;97089.28;;;0.28;100.00
52983;BME280;48698;45.736;13.926;2023-03-04T23:12:08;97334.94;;;1.62;100.00
52983;BME280;48698;45.736;13.926;2023-03-04T23:17:12;97342.31;;;1.83;100.00
52983;BME280;48698;45.736;13.926;2023-03-04T23:22:15;97340.25;;;1.59;100.00
52983;BME280;48698;45.736;13.926;2023-03-04T23:27:19;97226.97;;;0.68;100.00
52983;BME280;48698;45.736;13.926;2023-03-04T23:32:32;97339.19;;;1.26;100.00
52983;BME280;48698;45.736;13.926;2023-03-04T23:37:38;97305.25;;;1.20;100.00
52983;BME280;48698;45.736;13.926;2023-03-04T23:42:41;97227.38;;;0.46;100.00
52983;BME280;48698;45.736;13.926;2023-03-04T23:47:45;97341.63;;;1.33;100.00
52983;BME280;48698;45.736;13.926;2023-03-04T23:52:48;97255.94;;;1.01;100.00
52983;BME280;48698;45.736;13.926;2023-03-04T23:57:53;97307.84;;;1.21;100.00
